createdAt,value
2017-10-12T00:01:46.106Z,68.48
2017-10-12T00:04:13.622Z,69.20
2017-10-12T00:06:41.141Z,68.87
2017-10-12T00:09:08.746Z,68.44
2017-10-12T00:11:36.262Z,68.21
2017-10-12T00:14:03.796Z,68.34
2017-10-12T00:16:31.344Z,68.08
2017-10-12T00:18:58.890Z,67.63
2017-10-12T00:21:26.398Z,67.67
2017-10-12T00:23:54.119Z,67.60
2017-10-12T00:26:21.694Z,67.32
2017-10-12T00:28:49.247Z,67.40
2017-10-12T00:31:16.864Z,67.50
2017-10-12T00:33:44.413Z,67.65
2017-10-12T00:44:08.463Z,69.80
2017-10-12T00:46:36.043Z,69.10
2017-10-12T00:49:03.657Z,68.55
2017-10-12T00:51:31.258Z,68.24
2017-10-12T00:53:58.782Z,68.42
2017-10-12T00:56:26.360Z,68.85
2017-10-12T00:58:54.209Z,68.77
2017-10-12T01:01:21.740Z,69.00
2017-10-12T01:03:49.299Z,68.77
2017-10-12T01:06:16.898Z,68.66
2017-10-12T01:08:44.438Z,69.06
2017-10-12T01:11:11.980Z,69.04
2017-10-12T01:13:39.636Z,68.97
2017-10-12T01:16:07.158Z,69.30
2017-10-12T01:18:34.694Z,69.27
2017-10-12T01:21:02.324Z,69.79
2017-10-12T01:23:29.859Z,69.71
2017-10-12T01:25:57.420Z,69.59
2017-10-12T01:28:25.022Z,69.94
2017-10-12T01:30:52.547Z,69.48
2017-10-12T01:33:20.076Z,70.44
2017-10-12T01:35:47.669Z,70.68
2017-10-12T01:38:15.214Z,70.15
2017-10-12T01:40:42.757Z,70.06
2017-10-12T01:43:10.361Z,70.00
2017-10-12T01:45:37.914Z,69.36
2017-10-12T01:48:05.523Z,69.29
2017-10-12T01:50:33.112Z,69.50
2017-10-12T01:53:00.667Z,69.15
2017-10-12T01:55:28.341Z,69.49
2017-10-12T01:57:55.931Z,69.31
2017-10-12T02:00:23.478Z,69.32
2017-10-12T02:02:51.039Z,68.73
2017-10-12T02:05:18.659Z,68.72
2017-10-12T02:07:46.182Z,69.00
2017-10-12T02:10:13.771Z,69.76
2017-10-12T02:12:41.410Z,69.80
2017-10-12T02:15:08.993Z,69.26
2017-10-12T02:17:36.562Z,68.97
2017-10-12T02:20:04.173Z,68.77
2017-10-12T02:22:31.699Z,68.64
2017-10-12T02:24:59.241Z,68.93
2017-10-12T02:27:26.902Z,68.93
2017-10-12T02:29:54.436Z,68.96
2017-10-12T02:32:21.960Z,69.41
2017-10-12T02:34:49.530Z,69.76
2017-10-12T02:37:17.064Z,69.78
2017-10-12T02:39:44.604Z,70.02
2017-10-12T02:42:12.209Z,69.97
2017-10-12T02:44:39.730Z,70.12
2017-10-12T02:47:07.284Z,70.33
2017-10-12T02:49:34.850Z,70.52
2017-10-12T02:52:02.441Z,70.39
2017-10-12T02:54:29.983Z,70.43
2017-10-12T02:56:57.612Z,70.56
2017-10-12T02:59:25.164Z,69.99
2017-10-12T03:01:52.898Z,70.25
2017-10-12T03:04:20.500Z,70.33
2017-10-12T03:06:48.029Z,70.56
2017-10-12T03:09:15.616Z,70.84
2017-10-12T03:11:43.206Z,70.86
2017-10-12T03:14:10.865Z,70.24
2017-10-12T03:16:38.419Z,70.49
2017-10-12T03:19:06.014Z,70.42
2017-10-12T03:21:33.556Z,70.26
2017-10-12T03:24:01.087Z,70.28
2017-10-12T03:26:28.668Z,70.93
2017-10-12T03:28:56.196Z,71.27
2017-10-12T03:31:23.765Z,70.74
2017-10-12T03:33:51.365Z,70.63
2017-10-12T03:36:19.149Z,70.47
2017-10-12T03:38:46.761Z,70.34
2017-10-12T03:41:14.367Z,69.37
2017-10-12T03:44:30.015Z,68.68
2017-10-12T03:46:57.594Z,68.39
2017-10-12T03:49:25.427Z,68.71
2017-10-12T03:51:52.982Z,66.92
2017-10-12T03:54:20.669Z,66.91
2017-10-12T03:57:13.791Z,67.13
2017-10-12T03:59:42.291Z,67.57
2017-10-12T04:02:09.863Z,68.93
2017-10-12T04:04:37.394Z,69.44
2017-10-12T04:07:06.656Z,69.22
2017-10-12T04:09:34.259Z,69.34
2017-10-12T04:12:02.903Z,69.87
2017-10-12T04:14:30.449Z,70.37
2017-10-12T04:16:58.026Z,70.35
2017-10-12T04:19:25.629Z,71.18
2017-10-12T04:21:53.516Z,70.66
2017-10-12T04:24:21.110Z,70.78
2017-10-12T04:26:48.673Z,70.66
2017-10-12T04:29:16.212Z,70.66
2017-10-12T04:31:43.813Z,70.75
2017-10-12T04:34:11.413Z,70.32
2017-10-12T04:36:38.938Z,70.43
2017-10-12T04:39:06.527Z,70.14
2017-10-12T04:41:34.302Z,70.73
2017-10-12T04:44:01.814Z,70.95
2017-10-12T04:46:29.413Z,70.46
2017-10-12T04:48:56.963Z,69.50
2017-10-12T04:51:24.824Z,68.67
2017-10-12T04:53:52.410Z,68.04
2017-10-12T04:56:19.926Z,66.38
2017-10-12T04:58:47.471Z,65.24
2017-10-12T05:01:15.039Z,64.18
2017-10-12T05:03:42.563Z,62.66
2017-10-12T05:06:10.131Z,62.05
2017-10-12T05:08:37.753Z,61.08
2017-10-12T05:11:05.290Z,60.40
2017-10-12T05:13:32.875Z,59.27
2017-10-12T05:16:00.447Z,58.38
2017-10-12T05:18:27.976Z,56.97
2017-10-12T05:20:55.510Z,56.33
2017-10-12T05:23:23.078Z,55.62
2017-10-12T05:25:50.639Z,55.77
2017-10-12T05:28:18.173Z,53.93
2017-10-12T05:30:45.778Z,53.36
2017-10-12T05:33:13.341Z,52.76
2017-10-12T05:35:40.876Z,52.37
2017-10-12T05:38:08.501Z,52.03
2017-10-12T05:40:36.045Z,50.66
2017-10-12T05:43:03.603Z,51.56
2017-10-12T05:45:31.182Z,50.06
2017-10-12T05:47:58.696Z,49.32
2017-10-12T05:50:26.235Z,48.65
2017-10-12T05:52:53.798Z,47.63
2017-10-12T05:55:21.317Z,47.08
2017-10-12T05:57:48.847Z,46.93
2017-10-12T06:00:16.423Z,46.29
2017-10-12T06:02:43.971Z,45.97
2017-10-12T06:05:11.533Z,45.28
2017-10-12T06:07:39.102Z,44.38
2017-10-12T06:10:06.647Z,44.72
2017-10-12T06:12:34.185Z,43.42
2017-10-12T06:15:01.759Z,43.17
2017-10-12T06:17:29.316Z,42.74
2017-10-12T06:19:56.878Z,41.90
2017-10-12T06:22:24.443Z,41.80
2017-10-12T06:24:51.974Z,40.88
2017-10-12T06:27:19.496Z,40.78
2017-10-12T06:29:47.171Z,40.65
2017-10-12T06:32:14.764Z,41.23
2017-10-12T06:34:42.301Z,41.54
2017-10-12T06:37:09.827Z,42.26
2017-10-12T06:39:37.409Z,42.25
2017-10-12T06:42:05.007Z,41.87
2017-10-12T06:44:32.539Z,41.63
2017-10-12T06:47:00.104Z,40.15
2017-10-12T06:49:27.652Z,39.39
2017-10-12T06:51:55.166Z,38.93
2017-10-12T06:54:22.783Z,38.56
2017-10-12T06:56:50.327Z,39.00
2017-10-12T06:59:17.844Z,38.80
2017-10-12T07:01:45.474Z,37.73
2017-10-12T07:04:12.990Z,34.94
2017-10-12T07:06:40.510Z,36.61
2017-10-12T07:09:08.086Z,38.24
2017-10-12T07:11:39.841Z,39.39
2017-10-12T07:14:07.363Z,39.08
2017-10-12T07:16:34.936Z,39.69
2017-10-12T07:19:02.557Z,38.92
2017-10-12T07:21:30.094Z,37.74
2017-10-12T07:23:57.692Z,35.57
2017-10-12T07:26:25.247Z,38.42
2017-10-12T07:28:52.821Z,37.76
2017-10-12T07:31:20.414Z,37.27
2017-10-12T07:33:47.968Z,36.24
2017-10-12T07:36:15.508Z,35.92
2017-10-12T07:38:43.101Z,35.77
2017-10-12T07:41:10.632Z,34.36
2017-10-12T07:43:38.195Z,35.47
2017-10-12T07:46:05.788Z,34.91
2017-10-12T07:48:33.332Z,33.99
2017-10-12T07:51:00.856Z,34.63
2017-10-12T07:53:28.516Z,32.54
2017-10-12T07:55:56.058Z,33.72
2017-10-12T07:58:23.608Z,33.03
2017-10-12T08:00:51.194Z,33.46
2017-10-12T08:03:18.721Z,32.80
2017-10-12T08:05:46.249Z,32.91
2017-10-12T08:08:13.825Z,33.07
2017-10-12T08:10:41.365Z,31.59
2017-10-12T08:13:09.122Z,31.79
2017-10-12T08:15:36.686Z,32.78
2017-10-12T08:18:04.462Z,32.53
2017-10-12T08:20:31.984Z,32.74
2017-10-12T08:22:59.558Z,35.33
2017-10-12T08:25:27.102Z,34.00
2017-10-12T08:27:54.674Z,32.80
2017-10-12T08:30:22.373Z,32.75
2017-10-12T08:32:49.882Z,31.54
2017-10-12T08:35:17.405Z,32.05
2017-10-12T08:37:44.994Z,30.90
2017-10-12T08:40:12.513Z,31.26
2017-10-12T08:42:40.044Z,31.01
2017-10-12T08:45:07.649Z,30.51
2017-10-12T08:47:35.200Z,30.54
2017-10-12T08:50:02.740Z,28.54
2017-10-12T08:52:30.335Z,29.68
2017-10-12T08:54:57.889Z,30.32
2017-10-12T08:57:25.423Z,30.19
2017-10-12T08:59:53.072Z,30.19
2017-10-12T09:02:20.660Z,32.40
2017-10-12T09:04:48.184Z,31.57
2017-10-12T09:07:15.707Z,31.95
2017-10-12T09:09:43.287Z,31.07
2017-10-12T09:12:10.853Z,32.93
2017-10-12T09:14:38.374Z,33.39
2017-10-12T09:17:05.932Z,33.79
2017-10-12T09:19:33.456Z,33.51
2017-10-12T09:22:01.000Z,34.90
2017-10-12T09:24:28.622Z,33.48
2017-10-12T09:26:56.388Z,32.91
2017-10-12T09:29:23.928Z,32.57
2017-10-12T09:31:51.524Z,32.38
2017-10-12T09:34:19.067Z,32.45
2017-10-12T09:36:46.634Z,32.46
2017-10-12T09:39:14.246Z,31.98
2017-10-12T09:41:41.862Z,32.21
2017-10-12T09:44:09.447Z,31.58
2017-10-12T09:46:37.134Z,32.17
2017-10-12T09:49:04.692Z,31.87
2017-10-12T09:51:32.357Z,31.18
2017-10-12T09:53:59.942Z,31.28
2017-10-12T09:56:27.539Z,29.90
2017-10-12T09:58:55.097Z,30.06
2017-10-12T10:01:22.711Z,30.72
2017-10-12T10:03:50.287Z,30.68
2017-10-12T10:06:17.840Z,30.37
2017-10-12T10:08:45.419Z,30.26
2017-10-12T10:11:13.356Z,30.06
2017-10-12T10:13:40.875Z,30.09
2017-10-12T10:16:08.457Z,30.58
2017-10-12T10:18:35.994Z,31.02
2017-10-12T10:21:03.614Z,31.25
2017-10-12T10:23:31.195Z,31.15
2017-10-12T10:25:58.730Z,31.10
2017-10-12T10:28:26.552Z,31.83
2017-10-12T10:30:54.181Z,31.53
2017-10-12T10:33:21.751Z,31.07
2017-10-12T10:35:49.366Z,30.25
2017-10-12T10:38:16.934Z,30.69
2017-10-12T10:40:44.455Z,32.13
2017-10-12T10:43:11.977Z,32.03
2017-10-12T10:45:39.531Z,31.53
2017-10-12T10:48:07.054Z,30.58
2017-10-12T10:50:34.583Z,30.06
2017-10-12T10:53:02.193Z,29.26
2017-10-12T10:55:29.743Z,29.18
2017-10-12T10:57:57.269Z,29.30
2017-10-12T11:00:24.910Z,29.11
2017-10-12T11:02:52.588Z,28.64
2017-10-12T11:05:20.110Z,28.68
2017-10-12T11:07:47.687Z,28.38
2017-10-12T11:10:15.199Z,27.82
2017-10-12T11:12:42.732Z,28.01
2017-10-12T11:15:10.455Z,28.10
2017-10-12T11:17:38.048Z,28.53
2017-10-12T11:20:05.568Z,28.18
2017-10-12T11:22:33.132Z,27.91
2017-10-12T11:25:00.645Z,27.78
2017-10-12T11:27:28.445Z,27.17
2017-10-12T11:29:56.762Z,26.91
2017-10-12T11:32:24.336Z,27.61
2017-10-12T11:34:51.955Z,27.17
2017-10-12T11:37:19.514Z,27.33
2017-10-12T11:39:47.159Z,27.59
2017-10-12T11:42:14.743Z,27.58
2017-10-12T11:44:42.262Z,27.97
2017-10-12T11:47:10.352Z,27.74
2017-10-12T11:49:37.919Z,27.81
2017-10-12T11:52:05.933Z,27.97
2017-10-12T11:54:33.690Z,28.08
2017-10-12T11:57:02.141Z,28.22
2017-10-12T11:59:29.915Z,27.84
2017-10-12T12:01:57.521Z,27.87
2017-10-12T12:04:25.059Z,27.82
2017-10-12T12:06:52.596Z,27.75
2017-10-12T12:09:21.109Z,28.20
2017-10-12T12:11:48.668Z,28.45
2017-10-12T12:14:16.525Z,28.55
2017-10-12T12:16:44.103Z,28.65
2017-10-12T12:19:11.656Z,28.38
2017-10-12T12:21:39.216Z,28.03
2017-10-12T12:24:06.850Z,28.34
2017-10-12T12:26:34.373Z,28.36
2017-10-12T12:29:02.136Z,28.81
2017-10-12T12:31:29.714Z,29.06
2017-10-12T12:33:57.274Z,28.90
2017-10-12T12:36:25.067Z,29.68
2017-10-12T12:38:53.371Z,29.25
2017-10-12T12:41:20.963Z,29.49
2017-10-12T12:43:48.768Z,29.48
2017-10-12T12:46:16.358Z,29.24
2017-10-12T12:48:43.957Z,29.21
2017-10-12T12:51:11.466Z,29.22
2017-10-12T12:53:39.026Z,29.54
2017-10-12T12:56:07.070Z,29.56
2017-10-12T12:58:34.838Z,29.69
2017-10-12T13:01:02.473Z,30.29
2017-10-12T13:03:30.062Z,30.12
2017-10-12T13:05:58.134Z,29.77
2017-10-12T13:08:25.719Z,29.90
2017-10-12T13:10:53.329Z,30.30
2017-10-12T13:13:20.894Z,30.57
2017-10-12T13:15:48.466Z,30.58
2017-10-12T13:18:16.022Z,31.11
2017-10-12T13:20:43.616Z,31.27
2017-10-12T13:23:11.254Z,31.34
2017-10-12T13:25:38.777Z,31.80
2017-10-12T13:28:06.514Z,32.28
2017-10-12T13:30:35.045Z,32.08
2017-10-12T13:33:02.561Z,32.07
2017-10-12T13:35:30.161Z,32.35
2017-10-12T13:37:57.744Z,32.82
2017-10-12T13:40:25.296Z,33.05
2017-10-12T13:42:53.796Z,33.56
2017-10-12T13:45:21.369Z,33.41
2017-10-12T13:47:48.929Z,33.36
2017-10-12T13:50:16.453Z,33.51
2017-10-12T13:52:44.103Z,33.94
2017-10-12T13:55:11.929Z,33.72
2017-10-12T13:57:39.534Z,34.10
2017-10-12T14:00:08.267Z,34.12
2017-10-12T14:02:36.099Z,34.16
2017-10-12T14:05:03.693Z,33.97
2017-10-12T14:07:31.356Z,33.99
2017-10-12T14:09:58.952Z,34.28
2017-10-12T14:12:26.567Z,33.14
2017-10-12T14:14:54.258Z,32.04
2017-10-12T14:17:21.949Z,31.67
2017-10-12T14:19:49.502Z,31.48
2017-10-12T14:22:17.119Z,31.16
2017-10-12T14:24:44.965Z,30.63
2017-10-12T14:27:12.511Z,30.82
2017-10-12T14:29:40.071Z,30.82
2017-10-12T14:32:07.643Z,30.92
2017-10-12T14:34:35.200Z,31.08
2017-10-12T14:37:02.947Z,30.56
2017-10-12T14:39:30.555Z,30.47
2017-10-12T14:41:58.187Z,30.75
2017-10-12T14:44:27.045Z,30.87
2017-10-12T14:46:54.635Z,31.35
2017-10-12T14:49:22.173Z,31.13
2017-10-12T14:51:50.037Z,31.54
2017-10-12T14:54:17.603Z,31.88
2017-10-12T14:56:45.144Z,32.09
2017-10-12T14:59:12.893Z,32.44
2017-10-12T15:01:40.609Z,32.67
2017-10-12T15:04:08.154Z,33.14
2017-10-12T15:06:36.003Z,33.13
2017-10-12T15:09:03.686Z,33.33
2017-10-12T15:11:31.207Z,33.83
2017-10-12T15:13:58.722Z,33.76
2017-10-12T15:16:26.336Z,34.34
2017-10-12T15:18:54.138Z,34.26
2017-10-12T15:21:22.069Z,34.41
2017-10-12T15:23:49.703Z,35.06
2017-10-12T15:26:17.335Z,35.17
2017-10-12T15:28:45.105Z,35.51
2017-10-12T15:31:12.737Z,35.69
2017-10-12T15:33:40.250Z,36.28
2017-10-12T15:36:07.961Z,36.24
2017-10-12T15:38:35.522Z,36.51
2017-10-12T15:41:03.069Z,36.72
2017-10-12T15:43:31.391Z,36.80
2017-10-12T15:45:59.016Z,37.33
2017-10-12T15:48:26.598Z,37.58
2017-10-12T15:50:54.549Z,37.63
2017-10-12T15:53:22.208Z,37.86
2017-10-12T15:55:49.788Z,37.98
2017-10-12T15:58:17.327Z,38.58
2017-10-12T16:00:44.968Z,38.59
2017-10-12T16:03:12.527Z,38.72
2017-10-12T16:05:40.502Z,38.82
2017-10-12T16:08:08.146Z,39.29
2017-10-12T16:10:35.714Z,39.58
2017-10-12T16:13:03.315Z,39.51
2017-10-12T16:15:31.086Z,39.67
2017-10-12T16:17:58.975Z,39.73
2017-10-12T16:20:26.951Z,40.01
2017-10-12T16:22:57.559Z,39.94
2017-10-12T16:25:22.438Z,40.50
2017-10-12T16:27:50.706Z,40.12
2017-10-12T16:30:19.363Z,40.69
2017-10-12T16:35:15.543Z,40.37
2017-10-12T16:37:43.184Z,40.69
2017-10-12T16:42:38.467Z,41.85
2017-10-12T16:45:06.063Z,42.64
2017-10-12T16:47:33.635Z,42.87
2017-10-12T16:50:01.264Z,43.25
2017-10-12T16:52:30.291Z,43.61
2017-10-12T16:54:57.842Z,43.98
2017-10-12T16:57:25.467Z,44.43
2017-10-12T16:59:53.374Z,44.84
2017-10-12T17:02:21.408Z,44.85
2017-10-12T17:04:49.002Z,44.96
2017-10-12T17:07:17.713Z,45.28
2017-10-12T17:09:45.325Z,45.49
2017-10-12T17:12:12.908Z,45.74
2017-10-12T17:14:40.499Z,45.70
2017-10-12T17:17:08.169Z,45.69
2017-10-12T17:19:35.740Z,45.59
2017-10-12T17:22:03.384Z,45.66
2017-10-12T17:24:30.967Z,45.71
2017-10-12T17:26:58.563Z,45.64
2017-10-12T17:29:26.118Z,45.57
2017-10-12T17:31:53.813Z,45.83
2017-10-12T17:34:21.395Z,46.08
2017-10-12T17:36:48.936Z,46.88
2017-10-12T17:39:16.535Z,47.36
2017-10-12T17:41:44.093Z,47.28
2017-10-12T17:44:12.015Z,47.92
2017-10-12T17:46:39.681Z,48.56
2017-10-12T17:49:07.242Z,48.59
2017-10-12T17:51:34.761Z,48.25
2017-10-12T17:56:30.028Z,48.59
2017-10-12T17:58:57.589Z,48.92
2017-10-12T18:01:25.246Z,49.17
2017-10-12T18:03:52.839Z,49.05
2017-10-12T18:06:20.452Z,48.45
2017-10-12T18:08:48.034Z,48.60
2017-10-12T18:11:15.584Z,48.51
2017-10-12T18:13:43.101Z,48.68
2017-10-12T18:16:10.812Z,48.62
2017-10-12T18:18:38.685Z,48.32
2017-10-12T18:21:06.621Z,48.86
2017-10-12T18:23:34.782Z,48.82
2017-10-12T18:26:02.724Z,48.83
2017-10-12T18:28:30.934Z,49.18
2017-10-12T18:30:59.050Z,48.92
2017-10-12T18:33:27.077Z,48.59
2017-10-12T18:35:55.305Z,49.25
2017-10-12T18:38:23.485Z,49.26
2017-10-12T18:40:51.746Z,49.51
2017-10-12T18:43:19.679Z,49.37
2017-10-12T18:45:47.694Z,50.51
2017-10-12T18:48:15.715Z,50.51
2017-10-12T18:50:44.322Z,50.55
2017-10-12T18:53:12.528Z,50.46
2017-10-12T18:55:40.676Z,50.88
2017-10-12T18:58:08.849Z,51.34
2017-10-12T19:00:37.019Z,51.31
2017-10-12T19:03:05.131Z,51.45
2017-10-12T19:05:33.117Z,51.36
2017-10-12T19:08:02.285Z,51.00
2017-10-12T19:10:30.394Z,51.19
2017-10-12T19:12:58.704Z,51.17
2017-10-12T19:15:26.836Z,52.10
2017-10-12T19:17:54.858Z,52.47
2017-10-12T19:22:51.051Z,53.85
2017-10-12T19:25:19.797Z,55.04
2017-10-12T19:27:48.072Z,55.94
2017-10-12T19:30:16.153Z,55.18
2017-10-12T19:32:44.477Z,55.10
2017-10-12T19:35:12.195Z,55.21
2017-10-12T19:37:39.952Z,55.02
2017-10-12T19:40:07.788Z,55.40
2017-10-12T19:42:35.637Z,55.02
2017-10-12T19:45:03.510Z,56.34
2017-10-12T19:47:31.451Z,56.27
2017-10-12T19:50:00.246Z,55.83
2017-10-12T19:52:28.938Z,55.81
2017-10-12T19:54:56.826Z,55.92
2017-10-12T19:57:24.635Z,56.88
2017-10-12T19:59:52.466Z,56.40
2017-10-12T20:02:20.146Z,56.60
2017-10-12T20:04:47.959Z,57.01
2017-10-12T20:07:15.673Z,57.26
2017-10-12T20:09:43.428Z,57.06
2017-10-12T20:12:11.087Z,57.35
2017-10-12T20:14:38.706Z,57.06
2017-10-12T20:17:06.519Z,56.77
2017-10-12T20:19:34.232Z,57.17
2017-10-12T20:22:01.797Z,56.37
2017-10-12T20:24:29.423Z,57.21
2017-10-12T20:27:04.343Z,57.55
2017-10-12T20:29:31.961Z,58.27
2017-10-12T20:31:59.591Z,57.54
2017-10-12T20:34:27.189Z,57.25
2017-10-12T20:36:54.770Z,57.54
2017-10-12T20:39:22.478Z,57.89
2017-10-12T20:42:19.657Z,58.07
2017-10-12T20:44:17.674Z,57.10
2017-10-12T20:46:45.338Z,57.46
2017-10-12T20:49:12.869Z,57.91
2017-10-12T20:51:40.473Z,59.27
2017-10-12T20:54:08.052Z,59.74
2017-10-12T20:56:35.833Z,59.06
2017-10-12T20:59:03.393Z,58.77
2017-10-12T21:01:30.998Z,58.94
2017-10-12T21:03:58.531Z,60.29
2017-10-12T21:06:26.064Z,60.21
2017-10-12T21:08:53.679Z,59.38
2017-10-12T21:11:21.268Z,59.22
2017-10-12T21:13:49.026Z,58.95
2017-10-12T21:16:16.624Z,59.17
2017-10-12T21:18:44.206Z,59.48
2017-10-12T21:21:11.787Z,60.01
2017-10-12T21:23:39.387Z,60.17
2017-10-12T21:26:07.146Z,60.33
2017-10-12T21:28:34.683Z,60.43
2017-10-12T21:31:02.241Z,59.45
2017-10-12T21:33:29.861Z,59.93
2017-10-12T21:35:57.386Z,60.41
2017-10-12T21:38:24.994Z,60.26
2017-10-12T21:40:52.766Z,60.80
2017-10-12T21:43:20.347Z,59.93
2017-10-12T21:45:47.939Z,60.35
2017-10-12T21:48:15.458Z,59.77
2017-10-12T21:50:43.080Z,59.86
2017-10-12T21:53:10.649Z,60.50
2017-10-12T21:55:38.178Z,60.88
2017-10-12T21:58:05.714Z,60.61
2017-10-12T22:00:33.292Z,60.11
2017-10-12T22:03:01.051Z,60.36
2017-10-12T22:05:28.571Z,60.00
2017-10-12T22:07:56.243Z,59.17
2017-10-12T22:10:23.763Z,59.43
2017-10-12T22:12:51.370Z,59.74
2017-10-12T22:15:18.973Z,61.25
2017-10-12T22:17:46.751Z,61.13
2017-10-12T22:20:15.034Z,61.01
2017-10-12T22:22:43.452Z,60.34
2017-10-12T22:25:12.086Z,62.02
2017-10-12T22:27:39.687Z,63.09
2017-10-12T22:30:07.375Z,62.44
2017-10-12T22:32:34.947Z,62.44
2017-10-12T22:35:02.470Z,62.31
2017-10-12T22:37:32.019Z,62.01
2017-10-12T22:39:59.620Z,61.95
2017-10-12T22:42:27.173Z,61.51
2017-10-12T22:44:54.726Z,61.76
2017-10-12T22:47:22.595Z,61.40
2017-10-12T22:49:50.130Z,61.31
2017-10-12T22:52:17.744Z,61.71
2017-10-12T22:54:45.283Z,61.33
2017-10-12T22:57:12.837Z,60.18
2017-10-12T22:59:40.415Z,59.87
2017-10-12T23:02:08.288Z,60.39
2017-10-12T23:04:35.808Z,61.19
2017-10-12T23:07:03.339Z,61.05
2017-10-12T23:09:30.930Z,60.68
2017-10-12T23:11:58.505Z,60.56
2017-10-12T23:14:26.069Z,60.90
2017-10-12T23:16:53.698Z,61.02
2017-10-12T23:19:21.242Z,61.26
2017-10-12T23:21:48.781Z,61.62
2017-10-12T23:24:16.419Z,61.94
2017-10-12T23:26:43.945Z,61.62
2017-10-12T23:29:11.785Z,61.60
2017-10-12T23:31:39.379Z,62.38
2017-10-12T23:34:06.975Z,62.75
2017-10-12T23:36:34.568Z,62.67
2017-10-12T23:39:02.158Z,62.57
2017-10-12T23:41:29.801Z,62.56
2017-10-12T23:43:57.578Z,62.72
2017-10-12T23:46:25.145Z,62.51
2017-10-12T23:48:52.673Z,63.30
2017-10-12T23:51:20.253Z,63.51
2017-10-12T23:53:47.878Z,63.83
2017-10-12T23:56:15.431Z,63.97
2017-10-12T23:58:43.248Z,65.10
